createdAt,value
2019-02-03T00:00:53.063Z,979.54
2019-02-03T00:01:53.204Z,979.60
2019-02-03T00:02:53.348Z,979.61
2019-02-03T00:03:53.494Z,979.62
2019-02-03T00:04:53.639Z,979.61
2019-02-03T00:05:53.779Z,979.63
2019-02-03T00:07:02.989Z,979.65
2019-02-03T00:07:54.068Z,979.65
2019-02-03T00:08:54.223Z,979.65
2019-02-03T00:09:54.352Z,979.69
2019-02-03T00:10:54.492Z,979.71
2019-02-03T00:11:54.741Z,979.71
2019-02-03T00:12:54.779Z,979.69
2019-02-03T00:13:54.922Z,979.73
2019-02-03T00:14:55.064Z,979.73
2019-02-03T00:15:55.206Z,979.77
2019-02-03T00:16:55.405Z,979.78
2019-02-03T00:17:55.441Z,979.81
2019-02-03T00:18:55.585Z,979.79
2019-02-03T00:19:55.728Z,979.85
2019-02-03T00:20:55.867Z,979.86
2019-02-03T00:21:56.043Z,979.87
2019-02-03T00:22:56.150Z,979.88
2019-02-03T00:23:56.292Z,979.94
2019-02-03T00:24:56.433Z,979.94
2019-02-03T00:25:56.579Z,979.96
2019-02-03T00:26:56.723Z,980.02
2019-02-03T00:27:56.863Z,980.04
2019-02-03T00:28:57.008Z,980.06
2019-02-03T00:29:57.151Z,980.13
2019-02-03T00:30:57.295Z,980.14
2019-02-03T00:31:57.444Z,980.20
2019-02-03T00:32:57.581Z,980.19
2019-02-03T00:33:57.826Z,980.26
2019-02-03T00:34:57.867Z,980.28
2019-02-03T00:35:58.007Z,980.32
2019-02-03T00:36:58.151Z,980.39
2019-02-03T00:37:58.351Z,980.36
2019-02-03T00:38:58.537Z,980.39
2019-02-03T00:39:58.619Z,980.32
2019-02-03T00:40:58.834Z,980.37
2019-02-03T00:41:58.876Z,980.36
2019-02-03T00:42:59.013Z,980.34
2019-02-03T00:43:59.158Z,980.36
2019-02-03T00:44:59.302Z,980.38
2019-02-03T00:45:59.446Z,980.37
2019-02-03T00:46:59.591Z,980.39
2019-02-03T00:47:59.736Z,980.46
2019-02-03T00:48:59.876Z,980.42
2019-02-03T00:50:00.023Z,980.46
2019-02-03T00:51:00.277Z,980.41
2019-02-03T00:52:00.310Z,980.41
2019-02-03T00:53:00.453Z,980.41
2019-02-03T00:54:00.598Z,980.39
2019-02-03T00:55:00.741Z,980.44
2019-02-03T00:56:00.887Z,980.43
2019-02-03T00:57:01.029Z,980.43
2019-02-03T00:58:01.173Z,980.46
2019-02-03T00:59:01.314Z,980.44
2019-02-03T01:00:01.462Z,980.45
2019-02-03T01:01:01.600Z,980.41
2019-02-03T01:02:01.741Z,980.41
2019-02-03T01:03:01.886Z,980.42
2019-02-03T01:04:02.029Z,980.44
2019-02-03T01:05:02.170Z,980.42
2019-02-03T01:06:02.314Z,980.47
2019-02-03T01:07:02.457Z,980.51
2019-02-03T01:08:02.601Z,980.51
2019-02-03T01:09:02.744Z,980.49
2019-02-03T01:10:02.887Z,980.49
2019-02-03T01:11:03.029Z,980.54
2019-02-03T01:12:03.173Z,980.61
2019-02-03T01:13:03.317Z,980.63
2019-02-03T01:14:03.458Z,980.62
2019-02-03T01:15:03.604Z,980.64
2019-02-03T01:16:03.746Z,980.67
2019-02-03T01:17:03.890Z,980.73
2019-02-03T01:18:04.032Z,980.74
2019-02-03T01:19:04.175Z,980.75
2019-02-03T01:20:04.319Z,980.84
2019-02-03T01:21:04.460Z,980.81
2019-02-03T01:22:04.602Z,980.80
2019-02-03T01:23:04.746Z,980.85
2019-02-03T01:24:04.892Z,980.87
2019-02-03T01:25:05.033Z,980.91
2019-02-03T01:26:05.175Z,980.95
2019-02-03T01:27:05.317Z,980.97
2019-02-03T01:28:05.462Z,980.99
2019-02-03T01:29:05.623Z,980.98
2019-02-03T01:30:05.747Z,981.07
2019-02-03T01:31:05.888Z,981.06
2019-02-03T01:32:06.031Z,981.11
2019-02-03T01:33:06.177Z,981.08
2019-02-03T01:34:06.319Z,981.09
2019-02-03T01:35:06.464Z,981.07
2019-02-03T01:36:06.608Z,981.08
2019-02-03T01:37:06.754Z,981.09
2019-02-03T01:38:06.892Z,981.08
2019-02-03T01:39:07.035Z,981.12
2019-02-03T01:40:07.180Z,981.13
2019-02-03T01:41:07.322Z,981.12
2019-02-03T01:42:07.465Z,981.11
2019-02-03T01:43:07.612Z,981.11
2019-02-03T01:44:07.750Z,981.14
2019-02-03T01:45:07.892Z,981.11
2019-02-03T01:46:08.038Z,981.12
2019-02-03T01:47:08.177Z,981.17
2019-02-03T01:48:08.319Z,981.17
2019-02-03T01:49:08.462Z,981.19
2019-02-03T01:50:08.604Z,981.15
2019-02-03T01:51:08.748Z,981.17
2019-02-03T01:52:08.893Z,981.17
2019-02-03T01:53:09.139Z,981.22
2019-02-03T01:54:09.180Z,981.17
2019-02-03T01:55:09.324Z,981.14
2019-02-03T01:56:09.465Z,981.20
2019-02-03T01:57:09.609Z,981.21
2019-02-03T01:58:09.753Z,981.18
2019-02-03T01:59:09.894Z,981.13
2019-02-03T02:00:10.035Z,981.16
2019-02-03T02:01:10.178Z,981.13
2019-02-03T02:02:10.321Z,981.11
2019-02-03T02:03:10.465Z,981.11
2019-02-03T02:04:10.607Z,981.08
2019-02-03T02:05:10.752Z,981.07
2019-02-03T02:06:10.895Z,981.03
2019-02-03T02:07:11.037Z,981.06
2019-02-03T02:08:11.180Z,981.05
2019-02-03T02:09:11.322Z,981.08
2019-02-03T02:10:11.464Z,981.08
2019-02-03T02:11:11.722Z,981.08
2019-02-03T02:12:11.748Z,981.12
2019-02-03T02:13:11.893Z,981.10
2019-02-03T02:14:12.036Z,981.09
2019-02-03T02:15:12.177Z,981.11
2019-02-03T02:16:12.321Z,981.02
2019-02-03T02:17:12.463Z,981.02
2019-02-03T02:18:12.606Z,981.01
2019-02-03T02:19:12.748Z,980.95
2019-02-03T02:20:12.892Z,980.93
2019-02-03T02:21:13.035Z,980.84
2019-02-03T02:22:13.177Z,980.85
2019-02-03T02:23:13.317Z,980.79
2019-02-03T02:24:13.460Z,980.81
2019-02-03T02:25:13.605Z,980.78
2019-02-03T02:26:13.748Z,980.82
2019-02-03T02:27:13.885Z,980.88
2019-02-03T02:28:14.028Z,980.92
2019-02-03T02:29:14.186Z,980.94
2019-02-03T02:30:14.334Z,981.03
2019-02-03T02:31:14.473Z,981.13
2019-02-03T02:32:14.617Z,981.19
2019-02-03T02:33:14.762Z,981.26
2019-02-03T02:34:14.924Z,981.31
2019-02-03T02:35:15.046Z,981.37
2019-02-03T02:36:15.189Z,981.44
2019-02-03T02:37:15.331Z,981.50
2019-02-03T02:38:15.474Z,981.53
2019-02-03T02:39:15.617Z,981.61
2019-02-03T02:40:15.757Z,981.61
2019-02-03T02:41:15.900Z,981.66
2019-02-03T02:42:16.043Z,981.70
2019-02-03T02:43:16.188Z,981.75
2019-02-03T02:44:16.329Z,981.78
2019-02-03T02:45:16.470Z,981.84
2019-02-03T02:46:16.616Z,981.84
2019-02-03T02:47:16.755Z,981.89
2019-02-03T02:48:16.897Z,981.92
2019-02-03T02:49:17.041Z,981.91
2019-02-03T02:50:17.191Z,981.91
2019-02-03T02:51:17.327Z,981.84
2019-02-03T02:52:17.473Z,981.90
2019-02-03T02:53:17.612Z,981.90
2019-02-03T02:54:17.758Z,981.93
2019-02-03T02:55:17.903Z,981.91
2019-02-03T02:56:18.039Z,981.96
2019-02-03T02:57:18.191Z,981.98
2019-02-03T02:58:18.331Z,982.04
2019-02-03T02:59:18.467Z,982.03
2019-02-03T03:00:18.610Z,982.03
2019-02-03T03:01:18.754Z,982.04
2019-02-03T03:02:18.898Z,982.04
2019-02-03T03:03:19.040Z,982.04
2019-02-03T03:04:19.185Z,982.09
2019-02-03T03:05:19.330Z,982.13
2019-02-03T03:06:19.469Z,982.18
2019-02-03T03:07:19.618Z,982.19
2019-02-03T03:08:19.922Z,982.25
2019-02-03T03:09:19.902Z,982.24
2019-02-03T03:10:20.044Z,982.22
2019-02-03T03:11:20.182Z,982.29
2019-02-03T03:12:20.339Z,982.24
2019-02-03T03:13:20.470Z,982.27
2019-02-03T03:14:20.615Z,982.23
2019-02-03T03:15:20.758Z,982.28
2019-02-03T03:16:20.904Z,982.29
2019-02-03T03:17:21.046Z,982.31
2019-02-03T03:18:21.187Z,982.26
2019-02-03T03:19:21.334Z,982.36
2019-02-03T03:20:21.473Z,982.35
2019-02-03T03:21:21.619Z,982.39
2019-02-03T03:22:21.763Z,982.38
2019-02-03T03:23:21.913Z,982.41
2019-02-03T03:24:22.132Z,982.42
2019-02-03T03:25:22.195Z,982.44
2019-02-03T03:26:22.335Z,982.44
2019-02-03T03:27:22.479Z,982.48
2019-02-03T03:28:22.623Z,982.46
2019-02-03T03:29:22.763Z,982.51
2019-02-03T03:30:22.907Z,982.52
2019-02-03T03:31:23.051Z,982.57
2019-02-03T03:32:23.193Z,982.59
2019-02-03T03:33:23.362Z,982.60
2019-02-03T03:34:23.492Z,982.58
2019-02-03T03:35:23.625Z,982.57
2019-02-03T03:36:23.765Z,982.57
2019-02-03T03:37:23.906Z,982.58
2019-02-03T03:38:32.213Z,982.62
2019-02-03T03:39:24.193Z,982.60
2019-02-03T03:40:24.336Z,982.59
2019-02-03T03:41:24.479Z,982.68
2019-02-03T03:42:24.625Z,982.69
2019-02-03T03:43:24.764Z,982.76
2019-02-03T03:44:24.903Z,982.73
2019-02-03T03:45:25.050Z,982.79
2019-02-03T03:46:25.192Z,982.79
2019-02-03T03:47:25.334Z,982.81
2019-02-03T03:48:25.479Z,982.81
2019-02-03T03:49:25.619Z,982.84
2019-02-03T03:50:25.764Z,982.84
2019-02-03T03:51:25.905Z,982.88
2019-02-03T03:52:26.048Z,982.84
2019-02-03T03:53:26.192Z,982.82
2019-02-03T03:54:26.331Z,982.85
2019-02-03T03:55:26.478Z,982.86
2019-02-03T03:56:26.619Z,982.84
2019-02-03T03:57:26.762Z,982.87
2019-02-03T03:58:26.909Z,982.88
2019-02-03T03:59:27.048Z,982.95
2019-02-03T04:00:27.194Z,982.94
2019-02-03T04:01:27.552Z,982.94
2019-02-03T04:02:27.475Z,982.96
2019-02-03T04:03:27.615Z,982.96
2019-02-03T04:04:27.762Z,982.95
2019-02-03T04:05:27.904Z,982.94
2019-02-03T04:06:28.045Z,982.99
2019-02-03T04:07:28.192Z,983.03
2019-02-03T04:08:28.333Z,983.02
2019-02-03T04:09:28.473Z,983.01
2019-02-03T04:10:28.619Z,982.98
2019-02-03T04:11:28.760Z,983.00
2019-02-03T04:12:28.899Z,982.93
2019-02-03T04:13:29.043Z,982.90
2019-02-03T04:14:29.182Z,982.94
2019-02-03T04:15:29.325Z,982.93
2019-02-03T04:16:29.469Z,982.97
2019-02-03T04:17:29.612Z,982.99
2019-02-03T04:18:29.749Z,982.94
2019-02-03T04:19:29.888Z,982.92
2019-02-03T04:20:30.096Z,982.97
2019-02-03T04:21:30.191Z,982.98
2019-02-03T04:22:30.318Z,983.02
2019-02-03T04:23:30.461Z,983.03
2019-02-03T04:24:30.601Z,983.01
2019-02-03T04:25:30.744Z,983.03
2019-02-03T04:26:30.886Z,983.09
2019-02-03T04:27:31.036Z,983.07
2019-02-03T04:28:31.174Z,983.09
2019-02-03T04:29:31.316Z,983.14
2019-02-03T04:30:31.459Z,983.17
2019-02-03T04:31:31.604Z,983.17
2019-02-03T04:32:31.745Z,983.24
2019-02-03T04:33:31.888Z,983.25
2019-02-03T04:34:32.037Z,983.26
2019-02-03T04:35:32.170Z,983.26
2019-02-03T04:36:32.315Z,983.26
2019-02-03T04:37:32.456Z,983.29
2019-02-03T04:38:32.601Z,983.32
2019-02-03T04:39:32.739Z,983.35
2019-02-03T04:40:32.883Z,983.35
2019-02-03T04:41:33.025Z,983.35
2019-02-03T04:42:33.168Z,983.36
2019-02-03T04:43:33.313Z,983.35
2019-02-03T04:44:33.455Z,983.37
2019-02-03T04:45:33.600Z,983.36
2019-02-03T04:46:33.742Z,983.38
2019-02-03T04:47:33.919Z,983.37
2019-02-03T04:48:34.064Z,983.40
2019-02-03T04:49:34.205Z,983.42
2019-02-03T04:50:35.103Z,983.43
2019-02-03T04:51:34.493Z,983.44
2019-02-03T04:52:34.634Z,983.43
2019-02-03T04:53:34.789Z,983.41
2019-02-03T04:54:34.922Z,983.47
2019-02-03T04:55:35.063Z,983.45
2019-02-03T04:56:35.213Z,983.48
2019-02-03T04:57:35.349Z,983.46
2019-02-03T04:58:35.491Z,983.41
2019-02-03T04:59:35.631Z,983.57
2019-02-03T05:00:35.774Z,983.58
2019-02-03T05:01:35.917Z,983.65
2019-02-03T05:02:36.061Z,983.53
2019-02-03T05:03:36.208Z,983.57
2019-02-03T05:04:36.350Z,983.54
2019-02-03T05:05:36.500Z,983.55
2019-02-03T05:06:36.635Z,983.57
2019-02-03T05:07:36.778Z,983.64
2019-02-03T05:08:36.922Z,983.65
2019-02-03T05:09:37.064Z,983.60
2019-02-03T05:10:37.206Z,983.66
2019-02-03T05:11:37.350Z,983.66
2019-02-03T05:12:37.495Z,983.66
2019-02-03T05:13:37.638Z,983.67
2019-02-03T05:14:37.780Z,983.70
2019-02-03T05:15:37.920Z,983.72
2019-02-03T05:16:38.064Z,983.75
2019-02-03T05:17:38.218Z,983.76
2019-02-03T05:18:38.349Z,983.79
2019-02-03T05:19:38.494Z,983.79
2019-02-03T05:20:38.635Z,983.81
2019-02-03T05:21:38.779Z,983.82
2019-02-03T05:22:38.919Z,983.82
2019-02-03T05:23:39.060Z,983.78
2019-02-03T05:24:39.204Z,983.75
2019-02-03T05:25:39.345Z,983.72
2019-02-03T05:26:39.487Z,983.69
2019-02-03T05:27:39.628Z,983.67
2019-02-03T05:28:39.774Z,983.73
2019-02-03T05:29:39.916Z,983.75
2019-02-03T05:30:40.061Z,983.73
2019-02-03T05:31:40.200Z,983.73
2019-02-03T05:32:40.343Z,983.78
2019-02-03T05:33:40.486Z,983.78
2019-02-03T05:34:40.629Z,983.79
2019-02-03T05:35:40.770Z,983.82
2019-02-03T05:36:41.016Z,983.78
2019-02-03T05:37:41.049Z,983.78
2019-02-03T05:38:41.190Z,983.77
2019-02-03T05:39:41.334Z,983.77
2019-02-03T05:40:41.475Z,983.79
2019-02-03T05:41:41.617Z,983.76
2019-02-03T05:42:41.761Z,983.84
2019-02-03T05:43:41.902Z,983.84
2019-02-03T05:44:42.045Z,983.85
2019-02-03T05:45:42.185Z,983.93
2019-02-03T05:46:42.328Z,983.90
2019-02-03T05:47:42.471Z,983.91
2019-02-03T05:48:42.615Z,983.89
2019-02-03T05:49:42.754Z,983.88
2019-02-03T05:50:42.897Z,983.89
2019-02-03T05:51:43.040Z,983.91
2019-02-03T05:52:43.201Z,983.99
2019-02-03T05:53:43.325Z,983.95
2019-02-03T05:54:43.467Z,983.99
2019-02-03T05:55:43.614Z,983.97
2019-02-03T05:56:43.753Z,984.02
2019-02-03T05:57:43.968Z,984.03
2019-02-03T05:58:44.033Z,984.07
2019-02-03T05:59:44.173Z,984.09
2019-02-03T06:00:44.339Z,984.08
2019-02-03T06:01:44.482Z,984.18
2019-02-03T06:02:44.622Z,984.19
2019-02-03T06:03:44.767Z,984.24
2019-02-03T06:04:44.909Z,984.25
2019-02-03T06:05:45.053Z,984.33
2019-02-03T06:06:45.195Z,984.36
2019-02-03T06:07:45.337Z,984.35
2019-02-03T06:08:45.483Z,984.38
2019-02-03T06:09:45.622Z,984.36
2019-02-03T06:10:45.766Z,984.39
2019-02-03T06:11:45.908Z,984.42
2019-02-03T06:12:46.052Z,984.44
2019-02-03T06:13:46.195Z,984.47
2019-02-03T06:14:46.336Z,984.48
2019-02-03T06:15:46.479Z,984.53
2019-02-03T06:16:46.621Z,984.52
2019-02-03T06:17:46.764Z,984.51
2019-02-03T06:18:46.909Z,984.56
2019-02-03T06:19:47.051Z,984.54
2019-02-03T06:20:47.192Z,984.55
2019-02-03T06:21:47.335Z,984.64
2019-02-03T06:22:47.507Z,984.63
2019-02-03T06:23:47.620Z,984.66
2019-02-03T06:24:47.762Z,984.67
2019-02-03T06:25:47.909Z,984.69
2019-02-03T06:26:48.045Z,984.70
2019-02-03T06:27:48.190Z,984.72
2019-02-03T06:28:48.333Z,984.74
2019-02-03T06:29:48.474Z,984.80
2019-02-03T06:30:48.615Z,984.72
2019-02-03T06:31:48.762Z,984.72
2019-02-03T06:32:48.901Z,984.72
2019-02-03T06:33:49.043Z,984.74
2019-02-03T06:34:49.188Z,984.78
2019-02-03T06:35:49.330Z,984.75
2019-02-03T06:36:51.750Z,984.83
2019-02-03T06:37:49.631Z,984.79
2019-02-03T06:38:49.759Z,984.82
2019-02-03T06:39:49.904Z,984.84
2019-02-03T06:40:50.127Z,984.86
2019-02-03T06:41:50.186Z,984.87
2019-02-03T06:42:50.329Z,984.87
2019-02-03T06:43:50.477Z,984.88
2019-02-03T06:44:50.625Z,984.91
2019-02-03T06:45:50.757Z,984.89
2019-02-03T06:46:50.899Z,984.88
2019-02-03T06:47:51.041Z,984.99
2019-02-03T06:48:51.190Z,984.95
2019-02-03T06:49:51.348Z,984.97
2019-02-03T06:50:51.470Z,985.00
2019-02-03T06:51:51.614Z,984.99
2019-02-03T06:52:51.755Z,985.05
2019-02-03T06:53:51.898Z,985.02
2019-02-03T06:54:52.039Z,985.13
2019-02-03T06:55:52.179Z,985.09
2019-02-03T06:56:52.321Z,985.13
2019-02-03T06:57:52.464Z,985.18
2019-02-03T06:58:52.608Z,985.18
2019-02-03T06:59:52.752Z,985.22
2019-02-03T07:00:52.895Z,985.24
2019-02-03T07:01:53.038Z,985.24
2019-02-03T07:02:53.179Z,985.23
2019-02-03T07:03:53.320Z,985.28
2019-02-03T07:04:53.464Z,985.26
2019-02-03T07:05:53.608Z,985.26
2019-02-03T07:06:53.754Z,985.31
2019-02-03T07:07:53.894Z,985.32
2019-02-03T07:08:54.036Z,985.31
2019-02-03T07:10:00.394Z,985.32
2019-02-03T07:10:54.324Z,985.29
2019-02-03T07:11:54.466Z,985.22
2019-02-03T07:12:54.612Z,985.28
2019-02-03T07:13:54.756Z,985.29
2019-02-03T07:14:54.898Z,985.30
2019-02-03T07:15:55.050Z,985.31
2019-02-03T07:16:55.185Z,985.39
2019-02-03T07:17:55.329Z,985.30
2019-02-03T07:18:55.471Z,985.37
2019-02-03T07:19:55.615Z,985.43
2019-02-03T07:20:55.756Z,985.42
2019-02-03T07:21:55.899Z,985.43
2019-02-03T07:22:56.044Z,985.43
2019-02-03T07:23:56.186Z,985.49
2019-02-03T07:24:56.328Z,985.56
2019-02-03T07:25:56.470Z,985.49
2019-02-03T07:26:56.613Z,985.52
2019-02-03T07:27:56.760Z,985.58
2019-02-03T07:28:56.903Z,985.54
2019-02-03T07:29:57.045Z,985.56
2019-02-03T07:30:57.189Z,985.51
2019-02-03T07:31:57.336Z,985.54
2019-02-03T07:32:57.475Z,985.60
2019-02-03T07:33:57.623Z,985.59
2019-02-03T07:34:57.764Z,985.68
2019-02-03T07:35:57.936Z,985.71
2019-02-03T07:36:58.048Z,985.69
2019-02-03T07:37:58.191Z,985.71
2019-02-03T07:38:58.338Z,985.68
2019-02-03T07:39:58.479Z,985.68
2019-02-03T07:40:58.620Z,985.70
2019-02-03T07:41:58.763Z,985.75
2019-02-03T07:42:58.909Z,985.70
2019-02-03T07:43:59.048Z,985.76
2019-02-03T07:44:59.191Z,985.79
2019-02-03T07:45:59.333Z,985.73
2019-02-03T07:46:59.475Z,985.79
2019-02-03T07:47:59.618Z,985.76
2019-02-03T07:48:59.764Z,985.73
2019-02-03T07:49:59.905Z,985.79
2019-02-03T07:51:00.050Z,985.82
2019-02-03T07:52:00.192Z,985.84
2019-02-03T07:53:00.340Z,985.85
2019-02-03T07:54:08.070Z,985.92
2019-02-03T07:55:00.710Z,985.89
2019-02-03T07:56:00.766Z,985.90
2019-02-03T07:57:00.910Z,985.96
2019-02-03T07:58:01.051Z,985.98
2019-02-03T07:59:01.192Z,985.95
2019-02-03T08:00:01.335Z,985.94
2019-02-03T08:01:01.480Z,985.96
2019-02-03T08:02:01.621Z,985.98
2019-02-03T08:03:01.763Z,986.01
2019-02-03T08:04:01.907Z,986.02
2019-02-03T08:05:02.051Z,986.08
2019-02-03T08:06:02.192Z,986.04
2019-02-03T08:07:02.337Z,986.06
2019-02-03T08:08:02.479Z,986.09
2019-02-03T08:09:02.622Z,986.09
2019-02-03T08:10:02.769Z,986.14
2019-02-03T08:11:04.670Z,986.14
2019-02-03T08:12:03.054Z,986.16
2019-02-03T08:13:03.200Z,986.16
2019-02-03T08:14:03.341Z,986.14
2019-02-03T08:15:03.484Z,986.21
2019-02-03T08:16:03.628Z,986.28
2019-02-03T08:17:03.772Z,986.23
2019-02-03T08:18:03.914Z,986.24
2019-02-03T08:19:04.060Z,986.24
2019-02-03T08:20:04.204Z,986.32
2019-02-03T08:21:04.346Z,986.29
2019-02-03T08:22:04.489Z,986.33
2019-02-03T08:23:04.635Z,986.33
2019-02-03T08:24:04.776Z,986.32
2019-02-03T08:25:04.920Z,986.30
2019-02-03T08:26:05.063Z,986.35
2019-02-03T08:27:05.210Z,986.39
2019-02-03T08:28:05.351Z,986.41
2019-02-03T08:29:05.495Z,986.45
2019-02-03T08:30:05.636Z,986.45
2019-02-03T08:31:05.782Z,986.50
2019-02-03T08:32:05.925Z,986.51
2019-02-03T08:33:06.069Z,986.53
2019-02-03T08:34:06.214Z,986.62
2019-02-03T08:35:06.356Z,986.55
2019-02-03T08:36:06.500Z,986.58
2019-02-03T08:37:06.641Z,986.64
2019-02-03T08:38:06.787Z,986.68
2019-02-03T08:39:06.933Z,986.69
2019-02-03T08:40:07.074Z,986.68
2019-02-03T08:41:07.218Z,986.73
2019-02-03T08:42:07.367Z,986.75
2019-02-03T08:43:07.507Z,986.77
2019-02-03T08:44:07.730Z,986.77
2019-02-03T08:45:07.795Z,986.79
2019-02-03T08:46:07.939Z,986.87
2019-02-03T08:47:08.082Z,986.89
2019-02-03T08:48:08.229Z,986.86
2019-02-03T08:49:08.373Z,986.91
2019-02-03T08:50:08.631Z,986.94
2019-02-03T08:51:08.660Z,986.96
2019-02-03T08:52:08.807Z,986.91
2019-02-03T08:53:08.953Z,987.01
2019-02-03T08:54:09.091Z,986.99
2019-02-03T08:55:09.235Z,987.05
2019-02-03T08:56:09.383Z,987.04
2019-02-03T08:57:09.520Z,987.07
2019-02-03T08:58:09.666Z,987.14
2019-02-03T08:59:09.808Z,987.14
2019-02-03T09:00:09.954Z,987.14
2019-02-03T09:01:10.096Z,987.14
2019-02-03T09:02:10.239Z,987.21
2019-02-03T09:03:10.381Z,987.19
2019-02-03T09:04:10.525Z,987.24
2019-02-03T09:05:10.669Z,987.29
2019-02-03T09:06:10.812Z,987.31
2019-02-03T09:07:10.957Z,987.36
2019-02-03T09:08:11.103Z,987.35
2019-02-03T09:09:11.243Z,987.33
2019-02-03T09:10:11.387Z,987.45
2019-02-03T09:11:11.535Z,987.42
2019-02-03T09:12:11.680Z,987.43
2019-02-03T09:13:11.823Z,987.40
2019-02-03T09:14:11.970Z,987.46
2019-02-03T09:15:12.114Z,987.52
2019-02-03T09:16:12.374Z,987.52
2019-02-03T09:17:12.402Z,987.44
2019-02-03T09:18:12.552Z,987.53
2019-02-03T09:19:12.691Z,987.56
2019-02-03T09:20:12.845Z,987.53
2019-02-03T09:21:12.986Z,987.50
2019-02-03T09:22:13.140Z,987.52
2019-02-03T09:23:13.288Z,987.55
2019-02-03T09:24:13.436Z,987.61
2019-02-03T09:25:13.574Z,987.62
2019-02-03T09:26:13.715Z,987.62
2019-02-03T09:27:13.861Z,987.69
2019-02-03T09:28:14.007Z,987.67
2019-02-03T09:29:14.153Z,987.70
2019-02-03T09:30:14.295Z,987.71
2019-02-03T09:31:14.466Z,987.64
2019-02-03T09:32:14.610Z,987.70
2019-02-03T09:33:14.757Z,987.70
2019-02-03T09:34:14.897Z,987.75
2019-02-03T09:35:15.039Z,987.76
2019-02-03T09:36:15.183Z,987.78
2019-02-03T09:37:15.340Z,987.77
2019-02-03T09:38:15.492Z,987.77
2019-02-03T09:39:15.636Z,987.74
2019-02-03T09:40:15.778Z,987.84
2019-02-03T09:41:15.922Z,987.82
2019-02-03T09:42:16.066Z,987.76
2019-02-03T09:43:16.211Z,987.81
2019-02-03T09:44:16.357Z,987.79
2019-02-03T09:45:16.497Z,987.76
2019-02-03T09:46:16.640Z,987.75
2019-02-03T09:47:16.782Z,987.75
2019-02-03T09:48:16.930Z,987.79
2019-02-03T09:49:17.073Z,987.79
2019-02-03T09:50:17.216Z,987.81
2019-02-03T09:51:17.360Z,987.79
2019-02-03T09:52:17.504Z,987.80
2019-02-03T09:53:17.664Z,987.83
2019-02-03T09:54:17.808Z,987.83
2019-02-03T09:55:17.977Z,987.84
2019-02-03T09:56:18.163Z,987.88
2019-02-03T09:57:18.314Z,987.90
2019-02-03T09:58:18.462Z,987.91
2019-02-03T09:59:18.610Z,987.86
2019-02-03T10:00:18.758Z,987.93
2019-02-03T10:01:18.905Z,987.90
2019-02-03T10:02:19.050Z,987.98
2019-02-03T10:03:19.192Z,987.90
2019-02-03T10:04:19.340Z,987.98
2019-02-03T10:05:19.486Z,987.92
2019-02-03T10:06:19.629Z,987.98
2019-02-03T10:07:19.775Z,988.00
2019-02-03T10:08:19.922Z,988.03
2019-02-03T10:09:20.065Z,988.00
2019-02-03T10:10:20.215Z,988.05
2019-02-03T10:11:22.862Z,988.05
2019-02-03T10:12:20.450Z,988.04
2019-02-03T10:13:20.588Z,988.11
2019-02-03T10:14:20.736Z,988.07
2019-02-03T10:15:20.989Z,988.09
2019-02-03T10:16:21.058Z,988.06
2019-02-03T10:17:21.214Z,988.16
2019-02-03T10:18:21.372Z,988.17
2019-02-03T10:19:21.515Z,988.08
2019-02-03T10:20:21.659Z,988.10
2019-02-03T10:21:21.813Z,988.12
2019-02-03T10:22:21.957Z,988.13
2019-02-03T10:23:22.103Z,988.09
2019-02-03T10:24:22.248Z,988.16
2019-02-03T10:25:22.405Z,988.12
2019-02-03T10:26:22.584Z,988.16
2019-02-03T10:27:22.734Z,988.15
2019-02-03T10:28:22.876Z,988.20
2019-02-03T10:29:23.019Z,988.20
2019-02-03T10:30:23.161Z,988.20
2019-02-03T10:31:23.306Z,988.20
2019-02-03T10:32:23.450Z,988.24
2019-02-03T10:33:23.597Z,988.23
2019-02-03T10:34:23.744Z,988.23
2019-02-03T10:35:23.995Z,988.19
2019-02-03T10:36:24.055Z,988.22
2019-02-03T10:37:24.187Z,988.16
2019-02-03T10:38:24.331Z,988.19
2019-02-03T10:39:24.475Z,988.27
2019-02-03T10:40:24.636Z,988.26
2019-02-03T10:41:24.854Z,988.27
2019-02-03T10:42:24.890Z,988.28
2019-02-03T10:43:25.058Z,988.17
2019-02-03T10:44:25.216Z,988.26
2019-02-03T10:45:25.473Z,988.18
2019-02-03T10:46:25.539Z,988.15
2019-02-03T10:47:25.697Z,988.17
2019-02-03T10:48:25.853Z,988.16
2019-02-03T10:49:26.074Z,988.19
2019-02-03T10:50:26.099Z,988.17
2019-02-03T10:51:26.278Z,988.20
2019-02-03T10:52:26.506Z,988.14
2019-02-03T10:53:26.598Z,988.21
2019-02-03T10:54:26.674Z,988.23
2019-02-03T10:55:26.945Z,988.18
2019-02-03T10:56:26.991Z,988.29
2019-02-03T10:57:27.137Z,988.19
2019-02-03T10:58:27.285Z,988.18
2019-02-03T10:59:27.428Z,988.23
2019-02-03T11:00:27.573Z,988.19
2019-02-03T11:01:27.715Z,988.17
2019-02-03T11:02:27.857Z,988.20
2019-02-03T11:03:28.006Z,988.20
2019-02-03T11:04:28.153Z,988.17
2019-02-03T11:05:28.302Z,988.25
2019-02-03T11:06:28.445Z,988.19
2019-02-03T11:07:28.589Z,988.19
2019-02-03T11:08:28.731Z,988.21
2019-02-03T11:09:28.876Z,988.20
2019-02-03T11:10:29.019Z,988.26
2019-02-03T11:11:36.463Z,988.20
2019-02-03T11:12:29.311Z,988.26
2019-02-03T11:13:29.457Z,988.28
2019-02-03T11:14:29.601Z,988.23
2019-02-03T11:15:29.751Z,988.25
2019-02-03T11:16:30.059Z,988.32
2019-02-03T11:17:30.059Z,988.38
2019-02-03T11:18:30.196Z,988.30
2019-02-03T11:19:30.340Z,988.37
2019-02-03T11:20:30.484Z,988.38
2019-02-03T11:21:30.629Z,988.30
2019-02-03T11:22:30.775Z,988.30
2019-02-03T11:23:30.920Z,988.37
2019-02-03T11:24:31.066Z,988.38
2019-02-03T11:25:31.210Z,988.41
2019-02-03T11:26:31.358Z,988.42
2019-02-03T11:27:31.503Z,988.42
2019-02-03T11:28:31.646Z,988.42
2019-02-03T11:29:31.798Z,988.44
2019-02-03T11:30:31.944Z,988.48
2019-02-03T11:31:32.085Z,988.49
2019-02-03T11:32:32.231Z,988.44
2019-02-03T11:33:32.376Z,988.50
2019-02-03T11:34:32.520Z,988.52
2019-02-03T11:35:32.665Z,988.51
2019-02-03T11:36:32.807Z,988.55
2019-02-03T11:37:32.961Z,988.51
2019-02-03T11:38:33.104Z,988.58
2019-02-03T11:39:33.261Z,988.57
2019-02-03T11:40:33.419Z,988.56
2019-02-03T11:41:33.562Z,988.60
2019-02-03T11:42:33.707Z,988.59
2019-02-03T11:43:33.890Z,988.62
2019-02-03T11:44:34.032Z,988.63
2019-02-03T11:45:34.182Z,988.70
2019-02-03T11:46:34.327Z,988.72
2019-02-03T11:47:34.474Z,988.70
2019-02-03T11:48:34.629Z,988.65
2019-02-03T11:49:34.789Z,988.71
2019-02-03T11:50:34.924Z,988.76
2019-02-03T11:51:35.077Z,988.69
2019-02-03T11:52:35.245Z,988.74
2019-02-03T11:53:35.396Z,988.77
2019-02-03T11:54:35.541Z,988.72
2019-02-03T11:55:35.687Z,988.77
2019-02-03T11:56:35.834Z,988.74
2019-02-03T11:57:35.980Z,988.73
2019-02-03T11:58:36.124Z,988.73
2019-02-03T11:59:36.273Z,988.78
2019-02-03T12:00:36.415Z,988.76
2019-02-03T12:01:36.566Z,988.77
2019-02-03T12:02:41.943Z,988.87
2019-02-03T12:03:36.853Z,988.83
2019-02-03T12:04:36.999Z,988.85
2019-02-03T12:05:37.141Z,988.83
2019-02-03T12:06:37.288Z,988.93
2019-02-03T12:07:37.435Z,988.88
2019-02-03T12:08:37.580Z,988.83
2019-02-03T12:09:37.753Z,988.83
2019-02-03T12:10:37.950Z,988.85
2019-02-03T12:11:37.974Z,988.89
2019-02-03T12:12:38.122Z,988.90
2019-02-03T12:13:38.400Z,988.92
2019-02-03T12:14:38.455Z,988.98
2019-02-03T12:15:38.624Z,988.92
2019-02-03T12:16:38.776Z,988.99
2019-02-03T12:17:38.935Z,988.95
2019-02-03T12:18:39.086Z,988.95
2019-02-03T12:19:39.250Z,988.95
2019-02-03T12:20:39.411Z,988.95
2019-02-03T12:21:39.619Z,988.95
2019-02-03T12:22:39.663Z,988.99
2019-02-03T12:23:39.811Z,989.03
2019-02-03T12:24:39.971Z,988.99
2019-02-03T12:25:40.138Z,989.00
2019-02-03T12:26:40.377Z,989.04
2019-02-03T12:27:40.402Z,989.04
2019-02-03T12:28:40.619Z,988.98
2019-02-03T12:29:40.638Z,988.98
2019-02-03T12:30:40.830Z,988.97